sensor_id;sensor_type;location;lat;lon;timestamp;pressure;altitude;pressure_sealevel;temperature;humidity
17785;BME280;9016;53.582;10.062;2023-11-18T00:00:21;102351.06;;;8.12;76.01
17785;BME280;9016;53.582;10.062;2023-11-18T00:02:50;102352.06;;;8.08;75.88
17785;BME280;9016;53.582;10.062;2023-11-18T00:05:18;102359.19;;;8.06;75.51
17785;BME280;9016;53.582;10.062;2023-11-18T00:07:47;102337.75;;;8.13;75.73
17785;BME280;9016;53.582;10.062;2023-11-18T00:10:15;102338.69;;;8.11;76.03
17785;BME280;9016;53.582;10.062;2023-11-18T00:12:45;102336.97;;;8.10;74.86
17785;BME280;9016;53.582;10.062;2023-11-18T00:15:13;102335.13;;;8.12;76.36
17785;BME280;9016;53.582;10.062;2023-11-18T00:17:41;102334.19;;;8.14;76.07
17785;BME280;9016;53.582;10.062;2023-11-18T00:20:10;102332.06;;;8.28;75.47
17785;BME280;9016;53.582;10.062;2023-11-18T00:22:40;102340.09;;;8.27;74.80
17785;BME280;9016;53.582;10.062;2023-11-18T00:25:09;102326.88;;;8.24;75.54
17785;BME280;9016;53.582;10.062;2023-11-18T00:27:37;102345.34;;;8.30;75.15
17785;BME280;9016;53.582;10.062;2023-11-18T00:30:07;102334.72;;;8.30;74.90
17785;BME280;9016;53.582;10.062;2023-11-18T00:32:38;102333.69;;;8.35;75.05
17785;BME280;9016;53.582;10.062;2023-11-18T00:35:07;102340.00;;;8.31;75.80
17785;BME280;9016;53.582;10.062;2023-11-18T00:37:37;102338.38;;;8.23;74.97
17785;BME280;9016;53.582;10.062;2023-11-18T00:40:07;102334.72;;;8.28;75.58
17785;BME280;9016;53.582;10.062;2023-11-18T00:42:35;102336.88;;;8.13;75.96
17785;BME280;9016;53.582;10.062;2023-11-18T00:45:04;102347.16;;;8.28;75.62
17785;BME280;9016;53.582;10.062;2023-11-18T00:47:34;102346.13;;;8.33;75.66
17785;BME280;9016;53.582;10.062;2023-11-18T00:50:02;102346.03;;;8.36;75.50
17785;BME280;9016;53.582;10.062;2023-11-18T00:52:35;102350.41;;;8.39;75.13
17785;BME280;9016;53.582;10.062;2023-11-18T00:55:06;102348.59;;;8.41;74.89
17785;BME280;9016;53.582;10.062;2023-11-18T00:57:34;102346.97;;;8.34;75.36
17785;BME280;9016;53.582;10.062;2023-11-18T01:00:02;102354.06;;;8.35;75.51
17785;BME280;9016;53.582;10.062;2023-11-18T01:02:30;102348.56;;;8.42;74.86
17785;BME280;9016;53.582;10.062;2023-11-18T01:05:00;102344.38;;;8.32;75.76
17785;BME280;9016;53.582;10.062;2023-11-18T01:07:28;102347.88;;;8.34;75.31
17785;BME280;9016;53.582;10.062;2023-11-18T01:09:56;102347.03;;;8.32;75.71
17785;BME280;9016;53.582;10.062;2023-11-18T01:12:24;102342.06;;;8.17;76.17
17785;BME280;9016;53.582;10.062;2023-11-18T01:14:52;102346.25;;;8.29;75.56
17785;BME280;9016;53.582;10.062;2023-11-18T01:17:20;102360.25;;;8.35;75.59
17785;BME280;9016;53.582;10.062;2023-11-18T01:19:48;102350.41;;;8.39;75.97
17785;BME280;9016;53.582;10.062;2023-11-18T01:22:18;102354.75;;;8.43;75.42
17785;BME280;9016;53.582;10.062;2023-11-18T01:24:46;102355.56;;;8.45;75.43
17785;BME280;9016;53.582;10.062;2023-11-18T01:27:14;102353.72;;;8.47;75.09
17785;BME280;9016;53.582;10.062;2023-11-18T01:29:42;102349.38;;;8.44;75.62
17785;BME280;9016;53.582;10.062;2023-11-18T01:32:11;102357.41;;;8.43;75.50
17785;BME280;9016;53.582;10.062;2023-11-18T01:34:39;102349.38;;;8.44;75.16
17785;BME280;9016;53.582;10.062;2023-11-18T01:37:10;102351.06;;;8.48;74.99
17785;BME280;9016;53.582;10.062;2023-11-18T01:39:39;102354.56;;;8.49;75.60
17785;BME280;9016;53.582;10.062;2023-11-18T01:42:07;102355.53;;;8.46;75.48
17785;BME280;9016;53.582;10.062;2023-11-18T01:44:35;102352.97;;;8.42;76.06
17785;BME280;9016;53.582;10.062;2023-11-18T01:47:04;102350.22;;;8.46;75.39
17785;BME280;9016;53.582;10.062;2023-11-18T01:49:35;102351.34;;;8.36;75.58
17785;BME280;9016;53.582;10.062;2023-11-18T01:52:07;102347.22;;;8.23;76.22
17785;BME280;9016;53.582;10.062;2023-11-18T01:54:37;102355.97;;;8.30;76.24
17785;BME280;9016;53.582;10.062;2023-11-18T01:57:07;102356.66;;;8.36;76.51
17785;BME280;9016;53.582;10.062;2023-11-18T01:59:36;102367.19;;;8.41;76.05
17785;BME280;9016;53.582;10.062;2023-11-18T02:02:07;102366.19;;;8.45;75.00
17785;BME280;9016;53.582;10.062;2023-11-18T02:04:35;102369.75;;;8.44;75.73
17785;BME280;9016;53.582;10.062;2023-11-18T02:07:04;102368.81;;;8.46;75.37
17785;BME280;9016;53.582;10.062;2023-11-18T02:09:36;102368.97;;;8.40;76.23
17785;BME280;9016;53.582;10.062;2023-11-18T02:12:15;102363.75;;;8.37;75.90
17785;BME280;9016;53.582;10.062;2023-11-18T02:14:48;102372.47;;;8.42;76.89
17785;BME280;9016;53.582;10.062;2023-11-18T02:17:21;102367.94;;;8.46;76.14
17785;BME280;9016;53.582;10.062;2023-11-18T02:19:51;102374.03;;;8.49;76.23
17785;BME280;9016;53.582;10.062;2023-11-18T02:22:22;102374.97;;;8.48;74.97
17785;BME280;9016;53.582;10.062;2023-11-18T02:24:50;102374.03;;;8.49;75.36
17785;BME280;9016;53.582;10.062;2023-11-18T02:27:19;102386.50;;;8.47;75.63
17785;BME280;9016;53.582;10.062;2023-11-18T02:29:49;102387.22;;;8.52;76.24
17785;BME280;9016;53.582;10.062;2023-11-18T02:32:21;102390.78;;;8.53;75.73
17785;BME280;9016;53.582;10.062;2023-11-18T02:35:00;102386.25;;;8.56;75.60
17785;BME280;9016;53.582;10.062;2023-11-18T02:37:32;102382.66;;;8.59;75.24
17785;BME280;9016;53.582;10.062;2023-11-18T02:40:04;102389.69;;;8.60;75.81
17785;BME280;9016;53.582;10.062;2023-11-18T02:42:37;102379.94;;;8.60;75.25
17785;BME280;9016;53.582;10.062;2023-11-18T02:45:07;102396.78;;;8.61;75.28
17785;BME280;9016;53.582;10.062;2023-11-18T02:47:39;102387.03;;;8.61;75.65
17785;BME280;9016;53.582;10.062;2023-11-18T02:50:08;102401.09;;;8.65;75.36
17785;BME280;9016;53.582;10.062;2023-11-18T02:52:37;102393.47;;;8.51;75.93
17785;BME280;9016;53.582;10.062;2023-11-18T02:55:06;102401.31;;;8.56;75.54
17785;BME280;9016;53.582;10.062;2023-11-18T02:57:37;102406.41;;;8.65;75.99
17785;BME280;9016;53.582;10.062;2023-11-18T03:00:06;102402.78;;;8.67;75.32
17785;BME280;9016;53.582;10.062;2023-11-18T03:02:38;102405.50;;;8.66;75.59
17785;BME280;9016;53.582;10.062;2023-11-18T03:05:07;102403.63;;;8.69;74.98
17785;BME280;9016;53.582;10.062;2023-11-18T03:07:38;102403.72;;;8.66;75.17
17785;BME280;9016;53.582;10.062;2023-11-18T03:10:07;102403.88;;;8.60;75.65
17785;BME280;9016;53.582;10.062;2023-11-18T03:12:39;102398.84;;;8.50;75.49
17785;BME280;9016;53.582;10.062;2023-11-18T03:15:08;102410.09;;;8.59;76.55
17785;BME280;9016;53.582;10.062;2023-11-18T03:17:38;102402.13;;;8.59;75.93
17785;BME280;9016;53.582;10.062;2023-11-18T03:20:07;102396.59;;;8.68;75.60
17785;BME280;9016;53.582;10.062;2023-11-18T03:22:36;102398.25;;;8.71;75.77
17785;BME280;9016;53.582;10.062;2023-11-18T03:25:05;102393.00;;;8.69;75.08
17785;BME280;9016;53.582;10.062;2023-11-18T03:27:34;102387.63;;;8.72;74.93
17785;BME280;9016;53.582;10.062;2023-11-18T03:30:06;102392.94;;;8.72;74.07
17785;BME280;9016;53.582;10.062;2023-11-18T03:32:35;102393.09;;;8.66;75.56
17785;BME280;9016;53.582;10.062;2023-11-18T03:35:04;102391.22;;;8.70;75.09
17785;BME280;9016;53.582;10.062;2023-11-18T03:37:34;102397.41;;;8.70;74.80
17785;BME280;9016;53.582;10.062;2023-11-18T03:40:02;102399.28;;;8.65;75.22
17785;BME280;9016;53.582;10.062;2023-11-18T03:42:30;102394.13;;;8.61;75.60
17785;BME280;9016;53.582;10.062;2023-11-18T03:44:58;102392.22;;;8.66;74.35
17785;BME280;9016;53.582;10.062;2023-11-18T03:47:28;102392.53;;;8.54;75.32
17785;BME280;9016;53.582;10.062;2023-11-18T03:49:57;102399.53;;;8.56;76.27
17785;BME280;9016;53.582;10.062;2023-11-18T03:52:25;102406.41;;;8.65;76.07
17785;BME280;9016;53.582;10.062;2023-11-18T03:54:54;102403.66;;;8.68;75.14
17785;BME280;9016;53.582;10.062;2023-11-18T03:57:22;102407.28;;;8.65;75.55
17785;BME280;9016;53.582;10.062;2023-11-18T03:59:51;102402.94;;;8.63;75.19
17785;BME280;9016;53.582;10.062;2023-11-18T04:02:19;102411.88;;;8.59;74.59
17785;BME280;9016;53.582;10.062;2023-11-18T04:04:48;102406.72;;;8.53;74.94
17785;BME280;9016;53.582;10.062;2023-11-18T04:07:16;102408.72;;;8.43;75.17
17785;BME280;9016;53.582;10.062;2023-11-18T04:09:44;102406.94;;;8.44;75.69
17785;BME280;9016;53.582;10.062;2023-11-18T04:12:12;102401.59;;;8.45;74.49
17785;BME280;9016;53.582;10.062;2023-11-18T04:14:42;102412.34;;;8.39;74.88
17785;BME280;9016;53.582;10.062;2023-11-18T04:17:10;102405.34;;;8.37;75.09
17785;BME280;9016;53.582;10.062;2023-11-18T04:19:38;102407.88;;;8.41;75.28
17785;BME280;9016;53.582;10.062;2023-11-18T04:22:08;102414.03;;;8.43;75.13
17785;BME280;9016;53.582;10.062;2023-11-18T04:24:36;102411.50;;;8.39;74.79
17785;BME280;9016;53.582;10.062;2023-11-18T04:27:04;102409.88;;;8.33;73.95
17785;BME280;9016;53.582;10.062;2023-11-18T04:29:32;102408.94;;;8.34;74.90
17785;BME280;9016;53.582;10.062;2023-11-18T04:32:03;102407.13;;;8.36;75.00
17785;BME280;9016;53.582;10.062;2023-11-18T04:34:31;102408.91;;;8.37;75.48
17785;BME280;9016;53.582;10.062;2023-11-18T04:37:00;102409.84;;;8.35;74.14
17785;BME280;9016;53.582;10.062;2023-11-18T04:39:31;102403.44;;;8.42;74.29
17785;BME280;9016;53.582;10.062;2023-11-18T04:41:59;102399.88;;;8.44;74.10
17785;BME280;9016;53.582;10.062;2023-11-18T04:44:28;102397.13;;;8.47;74.52
17785;BME280;9016;53.582;10.062;2023-11-18T04:46:58;102394.38;;;8.50;73.89
17785;BME280;9016;53.582;10.062;2023-11-18T04:49:26;102395.28;;;8.49;73.75
17785;BME280;9016;53.582;10.062;2023-11-18T04:51:54;102398.19;;;8.40;73.91
17785;BME280;9016;53.582;10.062;2023-11-18T04:54:22;102400.72;;;8.45;73.92
17785;BME280;9016;53.582;10.062;2023-11-18T04:56:52;102413.28;;;8.38;74.72
17785;BME280;9016;53.582;10.062;2023-11-18T04:59:20;102405.63;;;8.25;74.17
17785;BME280;9016;53.582;10.062;2023-11-18T05:01:48;102408.28;;;8.26;74.61
17785;BME280;9016;53.582;10.062;2023-11-18T05:04:19;102403.72;;;8.31;75.46
17785;BME280;9016;53.582;10.062;2023-11-18T05:06:47;102398.31;;;8.34;75.27
17785;BME280;9016;53.582;10.062;2023-11-18T05:09:15;102399.88;;;8.44;74.47
17785;BME280;9016;53.582;10.062;2023-11-18T05:11:45;102398.88;;;8.48;75.02
17785;BME280;9016;53.582;10.062;2023-11-18T05:14:14;102383.88;;;8.46;74.03
17785;BME280;9016;53.582;10.062;2023-11-18T05:16:43;102392.72;;;8.46;74.69
17785;BME280;9016;53.582;10.062;2023-11-18T05:19:11;102379.69;;;8.37;74.29
17785;BME280;9016;53.582;10.062;2023-11-18T05:21:41;102377.91;;;8.36;74.13
17785;BME280;9016;53.582;10.062;2023-11-18T05:24:09;102380.47;;;8.41;74.96
17785;BME280;9016;53.582;10.062;2023-11-18T05:26:37;102366.50;;;8.33;74.08
17785;BME280;9016;53.582;10.062;2023-11-18T05:29:05;102372.78;;;8.29;74.28
17785;BME280;9016;53.582;10.062;2023-11-18T05:31:34;102371.16;;;8.22;74.44
17785;BME280;9016;53.582;10.062;2023-11-18T05:34:04;102369.34;;;8.24;75.09
17785;BME280;9016;53.582;10.062;2023-11-18T05:36:32;102363.00;;;8.31;74.78
17785;BME280;9016;53.582;10.062;2023-11-18T05:39:04;102362.91;;;8.35;74.15
17785;BME280;9016;53.582;10.062;2023-11-18T05:41:33;102365.66;;;8.31;74.75
17785;BME280;9016;53.582;10.062;2023-11-18T05:44:02;102355.84;;;8.34;74.79
17785;BME280;9016;53.582;10.062;2023-11-18T05:46:30;102363.84;;;8.33;74.67
17785;BME280;9016;53.582;10.062;2023-11-18T05:49:03;102363.00;;;8.31;75.21
17785;BME280;9016;53.582;10.062;2023-11-18T05:51:35;102364.88;;;8.27;75.46
17785;BME280;9016;53.582;10.062;2023-11-18T05:54:03;102363.13;;;8.26;75.09
17785;BME280;9016;53.582;10.062;2023-11-18T05:56:31;102359.50;;;8.29;74.60
17785;BME280;9016;53.582;10.062;2023-11-18T05:58:59;102356.81;;;8.30;74.65
17785;BME280;9016;53.582;10.062;2023-11-18T06:01:30;102353.31;;;8.28;74.78
17785;BME280;9016;53.582;10.062;2023-11-18T06:03:58;102356.97;;;8.23;74.75
17785;BME280;9016;53.582;10.062;2023-11-18T06:06:29;102344.72;;;8.17;75.09
17785;BME280;9016;53.582;10.062;2023-11-18T06:08:58;102349.03;;;8.21;75.23
17785;BME280;9016;53.582;10.062;2023-11-18T06:11:31;102355.50;;;8.11;74.60
17785;BME280;9016;53.582;10.062;2023-11-18T06:13:59;102354.72;;;8.08;75.63
17785;BME280;9016;53.582;10.062;2023-11-18T06:16:27;102363.53;;;8.10;75.19
17785;BME280;9016;53.582;10.062;2023-11-18T06:18:56;102359.00;;;8.12;75.25
17785;BME280;9016;53.582;10.062;2023-11-18T06:21:26;102350.34;;;8.05;75.59
17785;BME280;9016;53.582;10.062;2023-11-18T06:24:00;102358.25;;;8.07;75.77
17785;BME280;9016;53.582;10.062;2023-11-18T06:26:28;102356.50;;;8.07;75.57
17785;BME280;9016;53.582;10.062;2023-11-18T06:28:57;102359.91;;;8.12;74.71
17785;BME280;9016;53.582;10.062;2023-11-18T06:31:26;102351.88;;;8.14;75.52
17785;BME280;9016;53.582;10.062;2023-11-18T06:33:56;102348.47;;;8.09;75.11
17785;BME280;9016;53.582;10.062;2023-11-18T06:36:24;102353.97;;;8.01;75.68
17785;BME280;9016;53.582;10.062;2023-11-18T06:38:53;102352.38;;;7.94;76.18
17785;BME280;9016;53.582;10.062;2023-11-18T06:41:24;102356.09;;;7.87;76.81
17785;BME280;9016;53.582;10.062;2023-11-18T06:43:53;102356.13;;;7.84;77.46
17785;BME280;9016;53.582;10.062;2023-11-18T06:46:28;102352.69;;;7.82;76.71
17785;BME280;9016;53.582;10.062;2023-11-18T06:48:58;102354.63;;;7.74;77.46
17785;BME280;9016;53.582;10.062;2023-11-18T06:51:31;102359.13;;;7.70;77.54
17785;BME280;9016;53.582;10.062;2023-11-18T06:54:03;102364.47;;;7.69;78.27
17785;BME280;9016;53.582;10.062;2023-11-18T06:56:39;102359.81;;;7.80;78.02
17785;BME280;9016;53.582;10.062;2023-11-18T06:59:09;102374.16;;;7.70;78.46
17785;BME280;9016;53.582;10.062;2023-11-18T07:01:40;102369.78;;;7.69;78.36
17785;BME280;9016;53.582;10.062;2023-11-18T07:04:09;102379.56;;;7.67;78.35
17785;BME280;9016;53.582;10.062;2023-11-18T07:06:38;102383.06;;;7.69;78.41
17785;BME280;9016;53.582;10.062;2023-11-18T07:09:08;102394.81;;;7.57;78.15
17785;BME280;9016;53.582;10.062;2023-11-18T07:11:41;102403.72;;;7.53;78.59
17785;BME280;9016;53.582;10.062;2023-11-18T07:14:10;102412.47;;;7.57;78.71
17785;BME280;9016;53.582;10.062;2023-11-18T07:16:39;102421.44;;;7.51;79.35
17785;BME280;9016;53.582;10.062;2023-11-18T07:19:07;102420.38;;;7.61;78.99
17785;BME280;9016;53.582;10.062;2023-11-18T07:21:36;102427.41;;;7.62;78.87
17785;BME280;9016;53.582;10.062;2023-11-18T07:24:06;102430.59;;;7.78;78.83
17785;BME280;9016;53.582;10.062;2023-11-18T07:26:34;102416.28;;;7.85;78.28
17785;BME280;9016;53.582;10.062;2023-11-18T07:29:03;102411.72;;;7.91;77.60
17785;BME280;9016;53.582;10.062;2023-11-18T07:31:34;102414.53;;;7.84;77.81
17785;BME280;9016;53.582;10.062;2023-11-18T07:34:03;102405.38;;;7.97;78.24
17785;BME280;9016;53.582;10.062;2023-11-18T07:36:32;102401.00;;;7.96;77.93
17785;BME280;9016;53.582;10.062;2023-11-18T07:39:01;102386.13;;;7.89;77.63
17785;BME280;9016;53.582;10.062;2023-11-18T07:41:31;102389.63;;;7.89;77.54
17785;BME280;9016;53.582;10.062;2023-11-18T07:44:00;102400.44;;;7.82;78.08
17785;BME280;9016;53.582;10.062;2023-11-18T07:46:30;102408.59;;;7.73;78.59
17785;BME280;9016;53.582;10.062;2023-11-18T07:48:58;102421.00;;;7.72;78.88
17785;BME280;9016;53.582;10.062;2023-11-18T07:51:28;102416.59;;;7.71;79.01
17785;BME280;9016;53.582;10.062;2023-11-18T07:53:56;102417.53;;;7.69;78.72
17785;BME280;9016;53.582;10.062;2023-11-18T07:56:25;102415.00;;;7.63;78.79
17785;BME280;9016;53.582;10.062;2023-11-18T07:58:53;102419.44;;;7.62;79.30
17785;BME280;9016;53.582;10.062;2023-11-18T08:01:21;102419.41;;;7.65;79.28
17785;BME280;9016;53.582;10.062;2023-11-18T08:03:51;102412.16;;;7.72;78.30
17785;BME280;9016;53.582;10.062;2023-11-18T08:06:20;102415.69;;;7.72;77.84
17785;BME280;9016;53.582;10.062;2023-11-18T08:08:48;102404.19;;;7.72;78.63
17785;BME280;9016;53.582;10.062;2023-11-18T08:11:16;102411.06;;;7.82;77.51
17785;BME280;9016;53.582;10.062;2023-11-18T08:13:44;102409.47;;;7.73;78.02
17785;BME280;9016;53.582;10.062;2023-11-18T08:16:12;102408.53;;;7.76;78.41
17785;BME280;9016;53.582;10.062;2023-11-18T08:18:41;102411.06;;;7.80;77.45
17785;BME280;9016;53.582;10.062;2023-11-18T08:21:11;102414.56;;;7.82;77.17
17785;BME280;9016;53.582;10.062;2023-11-18T08:23:39;102404.00;;;7.81;77.60
17785;BME280;9016;53.582;10.062;2023-11-18T08:26:08;102419.88;;;7.82;76.30
17785;BME280;9016;53.582;10.062;2023-11-18T08:28:36;102416.91;;;7.96;76.20
17785;BME280;9016;53.582;10.062;2023-11-18T08:31:04;102401.84;;;7.98;75.23
17785;BME280;9016;53.582;10.062;2023-11-18T08:33:33;102399.97;;;8.01;74.62
17785;BME280;9016;53.582;10.062;2023-11-18T08:36:01;102386.94;;;7.92;74.37
17785;BME280;9016;53.582;10.062;2023-11-18T08:38:31;102393.94;;;7.95;73.58
17785;BME280;9016;53.582;10.062;2023-11-18T08:40:58;102385.78;;;8.02;73.90
17785;BME280;9016;53.582;10.062;2023-11-18T08:43:27;102389.25;;;8.06;73.21
17785;BME280;9016;53.582;10.062;2023-11-18T08:45:55;102393.03;;;7.96;73.00
17785;BME280;9016;53.582;10.062;2023-11-18T08:48:23;102394.75;;;7.97;73.29
17785;BME280;9016;53.582;10.062;2023-11-18T08:50:51;102384.38;;;7.88;72.84
17785;BME280;9016;53.582;10.062;2023-11-18T08:53:19;102380.88;;;7.87;73.43
17785;BME280;9016;53.582;10.062;2023-11-18T08:55:54;102388.81;;;7.87;73.48
17785;BME280;9016;53.582;10.062;2023-11-18T08:58:22;102386.19;;;7.86;73.28
17785;BME280;9016;53.582;10.062;2023-11-18T09:00:56;102383.66;;;7.81;73.26
17785;BME280;9016;53.582;10.062;2023-11-18T09:03:32;102380.81;;;7.89;73.86
17785;BME280;9016;53.582;10.062;2023-11-18T09:06:04;102380.78;;;7.90;73.09
17785;BME280;9016;53.582;10.062;2023-11-18T09:08:34;102381.66;;;7.91;72.93
17785;BME280;9016;53.582;10.062;2023-11-18T09:11:07;102378.13;;;7.90;72.57
17785;BME280;9016;53.582;10.062;2023-11-18T09:13:37;102377.03;;;7.99;72.41
17785;BME280;9016;53.582;10.062;2023-11-18T09:16:08;102370.75;;;8.03;72.66
17785;BME280;9016;53.582;10.062;2023-11-18T09:18:36;102362.78;;;8.03;72.79
17785;BME280;9016;53.582;10.062;2023-11-18T09:21:10;102363.63;;;8.05;72.73
17785;BME280;9016;53.582;10.062;2023-11-18T09:23:43;102364.44;;;8.07;72.18
17785;BME280;9016;53.582;10.062;2023-11-18T09:26:13;102357.38;;;8.06;72.43
17785;BME280;9016;53.582;10.062;2023-11-18T09:28:44;102362.72;;;8.04;72.64
17785;BME280;9016;53.582;10.062;2023-11-18T09:31:12;102347.53;;;8.11;72.86
17785;BME280;9016;53.582;10.062;2023-11-18T09:33:41;102347.81;;;7.99;71.95
17785;BME280;9016;53.582;10.062;2023-11-18T09:36:14;102341.72;;;7.95;72.88
17785;BME280;9016;53.582;10.062;2023-11-18T09:38:45;102344.50;;;7.89;73.04
17785;BME280;9016;53.582;10.062;2023-11-18T09:41:17;102353.41;;;7.88;72.86
17785;BME280;9016;53.582;10.062;2023-11-18T09:43:46;102359.59;;;7.89;73.73
17785;BME280;9016;53.582;10.062;2023-11-18T09:46:22;102364.53;;;8.04;73.34
17785;BME280;9016;53.582;10.062;2023-11-18T09:48:53;102357.38;;;8.08;72.36
17785;BME280;9016;53.582;10.062;2023-11-18T09:51:27;102353.78;;;8.09;71.32
17785;BME280;9016;53.582;10.062;2023-11-18T09:53:59;102346.56;;;8.14;71.06
17785;BME280;9016;53.582;10.062;2023-11-18T09:56:31;102343.16;;;8.09;70.74
17785;BME280;9016;53.582;10.062;2023-11-18T09:59:11;102348.38;;;8.13;71.29
17785;BME280;9016;53.582;10.062;2023-11-18T10:01:44;102339.63;;;8.10;70.80
17785;BME280;9016;53.582;10.062;2023-11-18T10:04:13;102345.03;;;8.05;71.88
17785;BME280;9016;53.582;10.062;2023-11-18T10:06:46;102337.75;;;8.13;70.93
17785;BME280;9016;53.582;10.062;2023-11-18T10:09:14;102338.47;;;8.20;71.51
17785;BME280;9016;53.582;10.062;2023-11-18T10:11:47;102330.38;;;8.26;70.70
17785;BME280;9016;53.582;10.062;2023-11-18T10:14:15;102328.25;;;8.40;69.81
17785;BME280;9016;53.582;10.062;2023-11-18T10:16:44;102335.13;;;8.48;70.19
17785;BME280;9016;53.582;10.062;2023-11-18T10:19:14;102339.41;;;8.54;69.95
17785;BME280;9016;53.582;10.062;2023-11-18T10:21:45;102330.84;;;8.43;68.72
17785;BME280;9016;53.582;10.062;2023-11-18T10:24:16;102316.72;;;8.39;68.98
17785;BME280;9016;53.582;10.062;2023-11-18T10:26:55;102325.63;;;8.38;68.98
17785;BME280;9016;53.582;10.062;2023-11-18T10:29:25;102324.56;;;8.45;69.22
17785;BME280;9016;53.582;10.062;2023-11-18T10:32:05;102317.16;;;8.56;68.49
17785;BME280;9016;53.582;10.062;2023-11-18T10:34:36;102316.59;;;8.45;68.01
17785;BME280;9016;53.582;10.062;2023-11-18T10:37:06;102301.81;;;8.35;67.87
17785;BME280;9016;53.582;10.062;2023-11-18T10:39:37;102304.19;;;8.46;68.79
17785;BME280;9016;53.582;10.062;2023-11-18T10:42:07;102291.69;;;8.49;67.98
17785;BME280;9016;53.582;10.062;2023-11-18T10:44:35;102292.53;;;8.51;68.04
17785;BME280;9016;53.582;10.062;2023-11-18T10:47:03;102291.38;;;8.60;68.42
17785;BME280;9016;53.582;10.062;2023-11-18T10:49:31;102297.63;;;8.59;67.61
17785;BME280;9016;53.582;10.062;2023-11-18T10:52:05;102302.25;;;8.51;68.02
17785;BME280;9016;53.582;10.062;2023-11-18T10:54:35;102306.78;;;8.47;67.32
17785;BME280;9016;53.582;10.062;2023-11-18T10:57:06;102291.94;;;8.40;66.52
17785;BME280;9016;53.582;10.062;2023-11-18T10:59:59;102282.34;;;8.35;65.83
17785;BME280;9016;53.582;10.062;2023-11-18T11:02:30;102276.91;;;8.39;66.68
17785;BME280;9016;53.582;10.062;2023-11-18T11:05:05;102268.78;;;8.45;65.74
17785;BME280;9016;53.582;10.062;2023-11-18T11:07:34;102265.06;;;8.51;65.72
17785;BME280;9016;53.582;10.062;2023-11-18T11:10:04;102258.78;;;8.55;65.41
17785;BME280;9016;53.582;10.062;2023-11-18T11:12:38;102252.66;;;8.51;65.02
17785;BME280;9016;53.582;10.062;2023-11-18T11:15:22;102241.78;;;8.60;65.71
17785;BME280;9016;53.582;10.062;2023-11-18T11:17:52;102239.22;;;8.57;65.55
17785;BME280;9016;53.582;10.062;2023-11-18T11:20:22;102246.94;;;8.66;65.69
17785;BME280;9016;53.582;10.062;2023-11-18T11:23:13;102240.53;;;8.73;64.75
17785;BME280;9016;53.582;10.062;2023-11-18T11:25:57;102230.56;;;8.81;64.72
17785;BME280;9016;53.582;10.062;2023-11-18T11:28:39;102220.75;;;8.83;63.86
17785;BME280;9016;53.582;10.062;2023-11-18T11:31:12;102224.63;;;8.72;63.52
17785;BME280;9016;53.582;10.062;2023-11-18T11:33:57;102208.63;;;8.73;64.34
17785;BME280;9016;53.582;10.062;2023-11-18T11:36:37;102211.56;;;8.64;64.45
17785;BME280;9016;53.582;10.062;2023-11-18T11:39:08;102202.59;;;8.68;64.65
17785;BME280;9016;53.582;10.062;2023-11-18T11:41:46;102197.34;;;8.65;64.77
17785;BME280;9016;53.582;10.062;2023-11-18T11:44:15;102195.72;;;8.61;64.85
17785;BME280;9016;53.582;10.062;2023-11-18T11:46:46;102202.25;;;8.50;65.80
17785;BME280;9016;53.582;10.062;2023-11-18T11:49:21;102211.22;;;8.46;66.60
17785;BME280;9016;53.582;10.062;2023-11-18T11:52:00;102200.59;;;8.46;66.59
17785;BME280;9016;53.582;10.062;2023-11-18T11:54:35;102200.28;;;8.56;66.29
17785;BME280;9016;53.582;10.062;2023-11-18T11:57:04;102187.75;;;8.60;66.33
17785;BME280;9016;53.582;10.062;2023-11-18T11:59:54;102185.38;;;8.51;67.06
17785;BME280;9016;53.582;10.062;2023-11-18T12:02:25;102191.34;;;8.59;67.24
17785;BME280;9016;53.582;10.062;2023-11-18T12:04:56;102177.69;;;8.71;67.00
17785;BME280;9016;53.582;10.062;2023-11-18T12:07:27;102179.50;;;8.70;67.02
17785;BME280;9016;53.582;10.062;2023-11-18T12:09:56;102187.47;;;8.70;67.29
17785;BME280;9016;53.582;10.062;2023-11-18T12:12:26;102169.16;;;8.60;67.45
17785;BME280;9016;53.582;10.062;2023-11-18T12:14:57;102175.34;;;8.60;67.22
17785;BME280;9016;53.582;10.062;2023-11-18T12:18:09;102180.41;;;8.69;66.67
17785;BME280;9016;53.582;10.062;2023-11-18T12:20:40;102175.31;;;8.62;67.77
17785;BME280;9016;53.582;10.062;2023-11-18T12:23:11;102179.94;;;8.55;67.92
17785;BME280;9016;53.582;10.062;2023-11-18T12:25:43;102171.81;;;8.61;67.19
17785;BME280;9016;53.582;10.062;2023-11-18T12:28:15;102170.97;;;8.59;67.41
17785;BME280;9016;53.582;10.062;2023-11-18T12:30:49;102163.84;;;8.60;67.99
17785;BME280;9016;53.582;10.062;2023-11-18T12:33:23;102152.66;;;8.79;67.46
17785;BME280;9016;53.582;10.062;2023-11-18T12:42:24;102162.41;;;9.07;66.60
17785;BME280;9016;53.582;10.062;2023-11-18T12:45:19;102182.16;;;8.99;65.52
17785;BME280;9016;53.582;10.062;2023-11-18T12:47:55;102162.22;;;8.85;66.10
17785;BME280;9016;53.582;10.062;2023-11-18T12:50:25;102174.34;;;8.93;66.30
17785;BME280;9016;53.582;10.062;2023-11-18T12:52:55;102171.03;;;8.85;65.81
17785;BME280;9016;53.582;10.062;2023-11-18T12:55:24;102163.94;;;8.86;65.42
17785;BME280;9016;53.582;10.062;2023-11-18T12:57:53;102165.81;;;8.82;66.41
17785;BME280;9016;53.582;10.062;2023-11-18T13:00:21;102177.47;;;8.78;66.20
17785;BME280;9016;53.582;10.062;2023-11-18T13:02:56;102164.09;;;8.81;66.30
17785;BME280;9016;53.582;10.062;2023-11-18T13:05:25;102152.78;;;8.75;66.20
17785;BME280;9016;53.582;10.062;2023-11-18T13:07:57;102150.06;;;8.76;66.18
17785;BME280;9016;53.582;10.062;2023-11-18T13:10:26;102152.28;;;8.62;66.29
17785;BME280;9016;53.582;10.062;2023-11-18T13:12:54;102161.69;;;8.74;66.41
17785;BME280;9016;53.582;10.062;2023-11-18T13:15:25;102167.38;;;8.60;67.04
17785;BME280;9016;53.582;10.062;2023-11-18T13:18:02;102169.09;;;8.63;67.52
17785;BME280;9016;53.582;10.062;2023-11-18T13:20:33;102178.66;;;8.68;66.73
17785;BME280;9016;53.582;10.062;2023-11-18T13:23:02;102176.47;;;8.53;67.82